sensor_id;sensor_type;location;lat;lon;timestamp;P1;durP1;ratioP1;P2;durP2;ratioP2
42802;SDS011;28447;48.682;9.022;2023-05-10T04:02:34;2.50;;;2.30;;
42802;SDS011;28447;48.682;9.022;2023-05-10T04:05:00;2.17;;;1.97;;
42802;SDS011;28447;48.682;9.022;2023-05-10T04:07:26;3.10;;;2.47;;
42802;SDS011;28447;48.682;9.022;2023-05-10T04:09:51;2.50;;;2.30;;
42802;SDS011;28447;48.682;9.022;2023-05-10T04:12:17;2.60;;;2.00;;
42802;SDS011;28447;48.682;9.022;2023-05-10T04:14:43;2.43;;;1.87;;
42802;SDS011;28447;48.682;9.022;2023-05-10T04:17:08;2.40;;;2.20;;
42802;SDS011;28447;48.682;9.022;2023-05-10T04:19:35;3.23;;;2.10;;
42802;SDS011;28447;48.682;9.022;2023-05-10T04:22:02;7.30;;;2.00;;
42802;SDS011;28447;48.682;9.022;2023-05-10T04:24:27;3.07;;;2.30;;
42802;SDS011;28447;48.682;9.022;2023-05-10T04:26:53;4.17;;;2.67;;
42802;SDS011;28447;48.682;9.022;2023-05-10T04:29:19;3.00;;;2.43;;
42802;SDS011;28447;48.682;9.022;2023-05-10T04:31:45;2.70;;;2.13;;
42802;SDS011;28447;48.682;9.022;2023-05-10T04:34:11;3.30;;;2.40;;
42802;SDS011;28447;48.682;9.022;2023-05-10T04:36:37;2.80;;;1.90;;
42802;SDS011;28447;48.682;9.022;2023-05-10T04:39:03;5.00;;;2.13;;
42802;SDS011;28447;48.682;9.022;2023-05-10T04:41:28;3.80;;;2.30;;
42802;SDS011;28447;48.682;9.022;2023-05-10T04:43:54;3.10;;;2.00;;
42802;SDS011;28447;48.682;9.022;2023-05-10T04:46:20;2.83;;;2.20;;
42802;SDS011;28447;48.682;9.022;2023-05-10T04:48:46;3.27;;;2.20;;
42802;SDS011;28447;48.682;9.022;2023-05-10T04:51:11;5.50;;;2.10;;
42802;SDS011;28447;48.682;9.022;2023-05-10T04:53:37;2.57;;;2.03;;
42802;SDS011;28447;48.682;9.022;2023-05-10T04:56:03;3.93;;;2.20;;
42802;SDS011;28447;48.682;9.022;2023-05-10T04:58:29;2.83;;;1.93;;
42802;SDS011;28447;48.682;9.022;2023-05-10T05:00:55;4.73;;;2.43;;
42802;SDS011;28447;48.682;9.022;2023-05-10T05:03:20;3.37;;;2.90;;
42802;SDS011;28447;48.682;9.022;2023-05-10T05:05:47;2.73;;;2.13;;
42802;SDS011;28447;48.682;9.022;2023-05-10T05:08:12;3.70;;;2.30;;
42802;SDS011;28447;48.682;9.022;2023-05-10T05:10:38;2.87;;;2.37;;
42802;SDS011;28447;48.682;9.022;2023-05-10T05:13:03;3.07;;;2.50;;
42802;SDS011;28447;48.682;9.022;2023-05-10T05:15:29;2.90;;;2.40;;
42802;SDS011;28447;48.682;9.022;2023-05-10T05:17:55;3.73;;;2.33;;
42802;SDS011;28447;48.682;9.022;2023-05-10T05:20:21;2.50;;;2.30;;
42802;SDS011;28447;48.682;9.022;2023-05-10T05:22:47;6.17;;;2.30;;
42802;SDS011;28447;48.682;9.022;2023-05-10T05:25:12;2.97;;;2.00;;
42802;SDS011;28447;48.682;9.022;2023-05-10T05:27:38;2.87;;;2.30;;
42802;SDS011;28447;48.682;9.022;2023-05-10T05:30:04;4.00;;;2.40;;
42802;SDS011;28447;48.682;9.022;2023-05-10T05:32:31;3.20;;;2.53;;
42802;SDS011;28447;48.682;9.022;2023-05-10T05:34:57;2.87;;;2.57;;
42802;SDS011;28447;48.682;9.022;2023-05-10T05:37:22;6.13;;;2.50;;
42802;SDS011;28447;48.682;9.022;2023-05-10T05:39:49;2.50;;;2.23;;
42802;SDS011;28447;48.682;9.022;2023-05-10T05:42:15;2.70;;;2.37;;
42802;SDS011;28447;48.682;9.022;2023-05-10T05:44:42;3.27;;;2.93;;
42802;SDS011;28447;48.682;9.022;2023-05-10T05:47:08;2.33;;;2.13;;
42802;SDS011;28447;48.682;9.022;2023-05-10T05:49:34;2.53;;;2.33;;
42802;SDS011;28447;48.682;9.022;2023-05-10T05:52:00;11.03;;;2.47;;
42802;SDS011;28447;48.682;9.022;2023-05-10T05:54:26;3.20;;;2.00;;
42802;SDS011;28447;48.682;9.022;2023-05-10T05:56:56;2.67;;;2.30;;
42802;SDS011;28447;48.682;9.022;2023-05-10T05:59:23;4.87;;;3.57;;
42802;SDS011;28447;48.682;9.022;2023-05-10T06:01:49;2.37;;;2.17;;
42802;SDS011;28447;48.682;9.022;2023-05-10T06:04:15;3.87;;;2.33;;
42802;SDS011;28447;48.682;9.022;2023-05-10T06:06:41;4.70;;;2.70;;
42802;SDS011;28447;48.682;9.022;2023-05-10T06:09:07;3.07;;;2.53;;
42802;SDS011;28447;48.682;9.022;2023-05-10T06:11:33;3.30;;;3.00;;
42802;SDS011;28447;48.682;9.022;2023-05-10T06:13:59;2.63;;;2.43;;
42802;SDS011;28447;48.682;9.022;2023-05-10T06:16:25;2.90;;;2.70;;
42802;SDS011;28447;48.682;9.022;2023-05-10T06:18:51;2.97;;;2.63;;
42802;SDS011;28447;48.682;9.022;2023-05-10T06:21:16;4.40;;;3.07;;
42802;SDS011;28447;48.682;9.022;2023-05-10T06:23:42;3.93;;;2.47;;
42802;SDS011;28447;48.682;9.022;2023-05-10T06:26:08;3.60;;;2.80;;
42802;SDS011;28447;48.682;9.022;2023-05-10T06:28:34;3.50;;;2.80;;
42802;SDS011;28447;48.682;9.022;2023-05-10T06:31:00;2.63;;;2.43;;
42802;SDS011;28447;48.682;9.022;2023-05-10T06:33:26;3.70;;;2.70;;
42802;SDS011;28447;48.682;9.022;2023-05-10T06:35:52;2.93;;;2.40;;
42802;SDS011;28447;48.682;9.022;2023-05-10T06:38:18;3.67;;;2.03;;
42802;SDS011;28447;48.682;9.022;2023-05-10T06:40:43;3.37;;;3.07;;
42802;SDS011;28447;48.682;9.022;2023-05-10T06:43:09;7.60;;;3.10;;
42802;SDS011;28447;48.682;9.022;2023-05-10T06:45:35;2.80;;;2.50;;
42802;SDS011;28447;48.682;9.022;2023-05-10T06:48:01;3.30;;;2.80;;
42802;SDS011;28447;48.682;9.022;2023-05-10T06:50:26;2.63;;;2.43;;
42802;SDS011;28447;48.682;9.022;2023-05-10T06:52:52;5.50;;;2.80;;
42802;SDS011;28447;48.682;9.022;2023-05-10T06:55:18;2.63;;;2.40;;
42802;SDS011;28447;48.682;9.022;2023-05-10T06:57:43;3.20;;;2.50;;
42802;SDS011;28447;48.682;9.022;2023-05-10T07:00:09;3.90;;;2.73;;
42802;SDS011;28447;48.682;9.022;2023-05-10T07:02:35;2.40;;;2.20;;
42802;SDS011;28447;48.682;9.022;2023-05-10T07:05:01;4.83;;;2.90;;
42802;SDS011;28447;48.682;9.022;2023-05-10T07:07:27;3.70;;;2.33;;
42802;SDS011;28447;48.682;9.022;2023-05-10T07:09:52;3.50;;;2.67;;
42802;SDS011;28447;48.682;9.022;2023-05-10T07:12:18;2.87;;;2.57;;
42802;SDS011;28447;48.682;9.022;2023-05-10T07:14:44;2.50;;;2.30;;
42802;SDS011;28447;48.682;9.022;2023-05-10T07:17:10;2.57;;;2.37;;
42802;SDS011;28447;48.682;9.022;2023-05-10T07:19:36;5.23;;;2.90;;
42802;SDS011;28447;48.682;9.022;2023-05-10T07:22:01;3.00;;;2.40;;
42802;SDS011;28447;48.682;9.022;2023-05-10T07:24:27;3.27;;;2.70;;
42802;SDS011;28447;48.682;9.022;2023-05-10T07:26:53;4.37;;;2.33;;
42802;SDS011;28447;48.682;9.022;2023-05-10T07:29:19;2.87;;;2.20;;
42802;SDS011;28447;48.682;9.022;2023-05-10T07:31:44;2.50;;;1.93;;
42802;SDS011;28447;48.682;9.022;2023-05-10T07:34:10;4.43;;;2.10;;
42802;SDS011;28447;48.682;9.022;2023-05-10T07:36:35;2.57;;;2.17;;
42802;SDS011;28447;48.682;9.022;2023-05-10T07:39:01;2.23;;;2.03;;
42802;SDS011;28447;48.682;9.022;2023-05-10T07:41:27;2.40;;;2.20;;
42802;SDS011;28447;48.682;9.022;2023-05-10T07:43:53;2.00;;;1.80;;
42802;SDS011;28447;48.682;9.022;2023-05-10T07:46:18;2.20;;;1.97;;
42802;SDS011;28447;48.682;9.022;2023-05-10T07:48:44;2.00;;;1.80;;
42802;SDS011;28447;48.682;9.022;2023-05-10T07:51:10;2.23;;;1.60;;
42802;SDS011;28447;48.682;9.022;2023-05-10T07:53:36;2.23;;;2.00;;
42802;SDS011;28447;48.682;9.022;2023-05-10T07:56:19;1.80;;;1.67;;
42802;SDS011;28447;48.682;9.022;2023-05-10T07:58:49;3.13;;;1.80;;
42802;SDS011;28447;48.682;9.022;2023-05-10T08:01:15;1.93;;;1.73;;
42802;SDS011;28447;48.682;9.022;2023-05-10T08:03:41;1.80;;;1.70;;
42802;SDS011;28447;48.682;9.022;2023-05-10T08:06:07;2.50;;;1.90;;
42802;SDS011;28447;48.682;9.022;2023-05-10T08:08:32;1.60;;;1.37;;
42802;SDS011;28447;48.682;9.022;2023-05-10T08:10:58;1.90;;;1.70;;
42802;SDS011;28447;48.682;9.022;2023-05-10T08:13:23;1.50;;;1.40;;
42802;SDS011;28447;48.682;9.022;2023-05-10T08:15:49;1.83;;;1.47;;
42802;SDS011;28447;48.682;9.022;2023-05-10T08:18:17;1.70;;;1.60;;
42802;SDS011;28447;48.682;9.022;2023-05-10T08:20:43;2.23;;;1.57;;
42802;SDS011;28447;48.682;9.022;2023-05-10T08:23:09;1.73;;;1.60;;
42802;SDS011;28447;48.682;9.022;2023-05-10T08:25:35;1.87;;;1.37;;
42802;SDS011;28447;48.682;9.022;2023-05-10T08:28:00;1.80;;;1.50;;
42802;SDS011;28447;48.682;9.022;2023-05-10T08:30:26;1.30;;;1.20;;
42802;SDS011;28447;48.682;9.022;2023-05-10T08:32:51;1.40;;;1.30;;
42802;SDS011;28447;48.682;9.022;2023-05-10T08:35:17;1.40;;;1.30;;
42802;SDS011;28447;48.682;9.022;2023-05-10T08:37:43;3.60;;;1.40;;
42802;SDS011;28447;48.682;9.022;2023-05-10T08:40:08;1.60;;;1.30;;
42802;SDS011;28447;48.682;9.022;2023-05-10T08:42:37;1.80;;;1.50;;
42802;SDS011;28447;48.682;9.022;2023-05-10T08:45:06;1.43;;;1.33;;
42802;SDS011;28447;48.682;9.022;2023-05-10T08:47:33;1.40;;;1.30;;
42802;SDS011;28447;48.682;9.022;2023-05-10T08:50:01;1.70;;;1.40;;
42802;SDS011;28447;48.682;9.022;2023-05-10T08:52:28;2.80;;;1.60;;
42802;SDS011;28447;48.682;9.022;2023-05-10T08:54:55;1.60;;;1.40;;
42802;SDS011;28447;48.682;9.022;2023-05-10T08:57:21;1.47;;;1.37;;
42802;SDS011;28447;48.682;9.022;2023-05-10T08:59:47;1.30;;;1.20;;
42802;SDS011;28447;48.682;9.022;2023-05-10T09:02:13;2.13;;;1.40;;
42802;SDS011;28447;48.682;9.022;2023-05-10T09:04:39;1.60;;;1.33;;
42802;SDS011;28447;48.682;9.022;2023-05-10T09:07:06;3.10;;;1.43;;
42802;SDS011;28447;48.682;9.022;2023-05-10T09:09:31;2.60;;;1.27;;
42802;SDS011;28447;48.682;9.022;2023-05-10T09:11:58;1.90;;;1.20;;
42802;SDS011;28447;48.682;9.022;2023-05-10T09:14:24;1.40;;;1.30;;
42802;SDS011;28447;48.682;9.022;2023-05-10T09:16:50;1.83;;;1.10;;
42802;SDS011;28447;48.682;9.022;2023-05-10T09:19:16;3.63;;;1.17;;
42802;SDS011;28447;48.682;9.022;2023-05-10T09:21:42;1.37;;;1.27;;
42802;SDS011;28447;48.682;9.022;2023-05-10T09:24:08;1.57;;;1.10;;
42802;SDS011;28447;48.682;9.022;2023-05-10T09:26:34;1.23;;;1.13;;
42802;SDS011;28447;48.682;9.022;2023-05-10T09:29:01;1.60;;;1.30;;
42802;SDS011;28447;48.682;9.022;2023-05-10T09:31:45;1.97;;;1.20;;
42802;SDS011;28447;48.682;9.022;2023-05-10T09:34:15;1.30;;;1.20;;
42802;SDS011;28447;48.682;9.022;2023-05-10T09:36:52;2.50;;;1.30;;
42802;SDS011;28447;48.682;9.022;2023-05-10T09:39:19;1.43;;;1.20;;
42802;SDS011;28447;48.682;9.022;2023-05-10T09:41:45;4.93;;;1.70;;
42802;SDS011;28447;48.682;9.022;2023-05-10T09:44:12;2.00;;;1.20;;
42802;SDS011;28447;48.682;9.022;2023-05-10T09:46:42;1.67;;;1.23;;
42802;SDS011;28447;48.682;9.022;2023-05-10T09:49:08;1.40;;;1.30;;
42802;SDS011;28447;48.682;9.022;2023-05-10T09:51:39;1.50;;;1.00;;
42802;SDS011;28447;48.682;9.022;2023-05-10T09:54:12;2.30;;;1.10;;
42802;SDS011;28447;48.682;9.022;2023-05-10T09:56:38;1.87;;;1.03;;
42802;SDS011;28447;48.682;9.022;2023-05-10T09:59:05;1.50;;;1.10;;
42802;SDS011;28447;48.682;9.022;2023-05-10T10:01:32;1.30;;;1.13;;
42802;SDS011;28447;48.682;9.022;2023-05-10T10:03:58;2.03;;;1.23;;
42802;SDS011;28447;48.682;9.022;2023-05-10T10:06:27;1.37;;;1.10;;
42802;SDS011;28447;48.682;9.022;2023-05-10T10:08:53;1.20;;;1.00;;
42802;SDS011;28447;48.682;9.022;2023-05-10T10:11:19;5.10;;;2.97;;
42802;SDS011;28447;48.682;9.022;2023-05-10T10:13:45;1.50;;;1.30;;
42802;SDS011;28447;48.682;9.022;2023-05-10T10:16:11;1.83;;;1.20;;
42802;SDS011;28447;48.682;9.022;2023-05-10T10:18:36;1.63;;;1.07;;
42802;SDS011;28447;48.682;9.022;2023-05-10T10:21:06;1.43;;;1.20;;
42802;SDS011;28447;48.682;9.022;2023-05-10T10:23:33;1.30;;;1.10;;
42802;SDS011;28447;48.682;9.022;2023-05-10T10:25:59;3.10;;;1.30;;
42802;SDS011;28447;48.682;9.022;2023-05-10T10:28:40;1.73;;;1.27;;
42802;SDS011;28447;48.682;9.022;2023-05-10T10:31:55;1.47;;;1.37;;
42802;SDS011;28447;48.682;9.022;2023-05-10T10:34:10;2.10;;;1.30;;
42802;SDS011;28447;48.682;9.022;2023-05-10T10:36:46;2.40;;;1.50;;
42802;SDS011;28447;48.682;9.022;2023-05-10T10:39:12;3.73;;;1.60;;
42802;SDS011;28447;48.682;9.022;2023-05-10T10:41:40;1.63;;;1.47;;
42802;SDS011;28447;48.682;9.022;2023-05-10T10:52:14;2.30;;;1.20;;
42802;SDS011;28447;48.682;9.022;2023-05-10T10:54:41;2.27;;;1.40;;
42802;SDS011;28447;48.682;9.022;2023-05-10T10:57:10;2.60;;;1.47;;
42802;SDS011;28447;48.682;9.022;2023-05-10T10:59:41;3.33;;;1.30;;
42802;SDS011;28447;48.682;9.022;2023-05-10T11:02:08;2.00;;;1.70;;
42802;SDS011;28447;48.682;9.022;2023-05-10T11:04:43;1.30;;;1.20;;
42802;SDS011;28447;48.682;9.022;2023-05-10T11:07:17;1.60;;;1.40;;
42802;SDS011;28447;48.682;9.022;2023-05-10T11:09:43;1.70;;;1.33;;
42802;SDS011;28447;48.682;9.022;2023-05-10T11:12:11;3.50;;;1.73;;
42802;SDS011;28447;48.682;9.022;2023-05-10T11:14:36;1.60;;;1.40;;
42802;SDS011;28447;48.682;9.022;2023-05-10T11:17:02;4.67;;;1.37;;
42802;SDS011;28447;48.682;9.022;2023-05-10T11:20:10;2.80;;;1.20;;
42802;SDS011;28447;48.682;9.022;2023-05-10T11:22:54;4.00;;;1.30;;
42802;SDS011;28447;48.682;9.022;2023-05-10T11:25:19;1.40;;;1.30;;
42802;SDS011;28447;48.682;9.022;2023-05-10T11:27:51;1.90;;;1.33;;
42802;SDS011;28447;48.682;9.022;2023-05-10T11:30:17;2.30;;;1.63;;
42802;SDS011;28447;48.682;9.022;2023-05-10T11:32:43;2.33;;;1.60;;
42802;SDS011;28447;48.682;9.022;2023-05-10T11:35:09;1.60;;;1.40;;
42802;SDS011;28447;48.682;9.022;2023-05-10T11:37:37;2.03;;;1.30;;
42802;SDS011;28447;48.682;9.022;2023-05-10T11:40:07;1.60;;;1.30;;
42802;SDS011;28447;48.682;9.022;2023-05-10T11:42:35;3.27;;;1.47;;
42802;SDS011;28447;48.682;9.022;2023-05-10T11:45:04;2.17;;;1.40;;
42802;SDS011;28447;48.682;9.022;2023-05-10T11:47:30;2.43;;;1.40;;
42802;SDS011;28447;48.682;9.022;2023-05-10T11:49:56;3.60;;;1.60;;
42802;SDS011;28447;48.682;9.022;2023-05-10T11:52:22;2.37;;;1.60;;
42802;SDS011;28447;48.682;9.022;2023-05-10T11:54:52;2.87;;;1.60;;
42802;SDS011;28447;48.682;9.022;2023-05-10T11:57:20;2.70;;;1.70;;
42802;SDS011;28447;48.682;9.022;2023-05-10T11:59:53;2.03;;;1.50;;
42802;SDS011;28447;48.682;9.022;2023-05-10T12:02:22;1.87;;;1.63;;
42802;SDS011;28447;48.682;9.022;2023-05-10T12:04:48;2.40;;;1.63;;
42802;SDS011;28447;48.682;9.022;2023-05-10T12:07:15;2.20;;;1.50;;
42802;SDS011;28447;48.682;9.022;2023-05-10T12:09:48;3.30;;;2.00;;
42802;SDS011;28447;48.682;9.022;2023-05-10T12:12:41;3.53;;;1.47;;
42802;SDS011;28447;48.682;9.022;2023-05-10T12:15:12;2.10;;;1.50;;
42802;SDS011;28447;48.682;9.022;2023-05-10T12:17:43;1.70;;;1.53;;
42802;SDS011;28447;48.682;9.022;2023-05-10T12:20:28;2.87;;;1.90;;
42802;SDS011;28447;48.682;9.022;2023-05-10T12:22:56;3.90;;;1.80;;
42802;SDS011;28447;48.682;9.022;2023-05-10T12:25:24;3.37;;;1.77;;
42802;SDS011;28447;48.682;9.022;2023-05-10T12:27:58;1.97;;;1.63;;
42802;SDS011;28447;48.682;9.022;2023-05-10T12:30:27;2.83;;;1.70;;
42802;SDS011;28447;48.682;9.022;2023-05-10T12:32:54;3.27;;;1.80;;
42802;SDS011;28447;48.682;9.022;2023-05-10T12:35:24;2.63;;;1.60;;
42802;SDS011;28447;48.682;9.022;2023-05-10T12:37:51;3.50;;;2.00;;
42802;SDS011;28447;48.682;9.022;2023-05-10T12:40:16;2.50;;;1.63;;
42802;SDS011;28447;48.682;9.022;2023-05-10T12:42:42;6.20;;;1.83;;
42802;SDS011;28447;48.682;9.022;2023-05-10T12:45:10;3.63;;;1.70;;
42802;SDS011;28447;48.682;9.022;2023-05-10T12:47:38;3.63;;;1.60;;
42802;SDS011;28447;48.682;9.022;2023-05-10T12:50:04;2.13;;;1.70;;
42802;SDS011;28447;48.682;9.022;2023-05-10T12:52:30;2.53;;;1.70;;
42802;SDS011;28447;48.682;9.022;2023-05-10T12:54:59;4.63;;;1.73;;
42802;SDS011;28447;48.682;9.022;2023-05-10T12:57:25;2.70;;;1.50;;
42802;SDS011;28447;48.682;9.022;2023-05-10T12:59:51;2.23;;;1.87;;
42802;SDS011;28447;48.682;9.022;2023-05-10T13:02:17;4.03;;;1.97;;
42802;SDS011;28447;48.682;9.022;2023-05-10T13:04:43;1.87;;;1.60;;
42802;SDS011;28447;48.682;9.022;2023-05-10T13:07:11;3.77;;;1.50;;
42802;SDS011;28447;48.682;9.022;2023-05-10T13:09:36;1.60;;;1.50;;
42802;SDS011;28447;48.682;9.022;2023-05-10T13:12:02;10.30;;;1.90;;
42802;SDS011;28447;48.682;9.022;2023-05-10T13:14:28;3.20;;;1.57;;
42802;SDS011;28447;48.682;9.022;2023-05-10T13:16:54;2.77;;;1.60;;
42802;SDS011;28447;48.682;9.022;2023-05-10T13:19:20;12.43;;;2.23;;
42802;SDS011;28447;48.682;9.022;2023-05-10T13:21:46;3.43;;;1.50;;
42802;SDS011;28447;48.682;9.022;2023-05-10T13:24:12;1.87;;;1.77;;
42802;SDS011;28447;48.682;9.022;2023-05-10T13:26:42;4.07;;;1.80;;
42802;SDS011;28447;48.682;9.022;2023-05-10T13:29:08;2.50;;;1.70;;
42802;SDS011;28447;48.682;9.022;2023-05-10T13:31:34;2.63;;;1.70;;
42802;SDS011;28447;48.682;9.022;2023-05-10T13:34:01;6.50;;;1.87;;
42802;SDS011;28447;48.682;9.022;2023-05-10T13:36:27;2.10;;;1.67;;
42802;SDS011;28447;48.682;9.022;2023-05-10T13:38:53;2.67;;;1.70;;
42802;SDS011;28447;48.682;9.022;2023-05-10T13:41:18;1.70;;;1.60;;
42802;SDS011;28447;48.682;9.022;2023-05-10T13:43:44;2.83;;;1.80;;
42802;SDS011;28447;48.682;9.022;2023-05-10T13:46:10;2.30;;;1.73;;
42802;SDS011;28447;48.682;9.022;2023-05-10T13:48:36;2.00;;;1.80;;
42802;SDS011;28447;48.682;9.022;2023-05-10T13:51:04;3.17;;;1.67;;
42802;SDS011;28447;48.682;9.022;2023-05-10T13:53:30;2.10;;;1.70;;
42802;SDS011;28447;48.682;9.022;2023-05-10T13:55:56;2.80;;;1.70;;
42802;SDS011;28447;48.682;9.022;2023-05-10T13:58:22;1.87;;;1.70;;
42802;SDS011;28447;48.682;9.022;2023-05-10T14:00:48;4.73;;;2.10;;
42802;SDS011;28447;48.682;9.022;2023-05-10T14:03:14;1.80;;;1.37;;
42802;SDS011;28447;48.682;9.022;2023-05-10T14:05:39;2.63;;;1.73;;
42802;SDS011;28447;48.682;9.022;2023-05-10T14:08:05;3.60;;;2.27;;
42802;SDS011;28447;48.682;9.022;2023-05-10T14:10:31;2.03;;;1.50;;
42802;SDS011;28447;48.682;9.022;2023-05-10T14:12:56;3.23;;;1.70;;
42802;SDS011;28447;48.682;9.022;2023-05-10T14:15:22;2.70;;;1.57;;
42802;SDS011;28447;48.682;9.022;2023-05-10T14:17:48;4.07;;;1.80;;
42802;SDS011;28447;48.682;9.022;2023-05-10T14:20:13;1.80;;;1.60;;
42802;SDS011;28447;48.682;9.022;2023-05-10T14:22:39;2.27;;;1.90;;
42802;SDS011;28447;48.682;9.022;2023-05-10T14:25:05;3.13;;;1.63;;
42802;SDS011;28447;48.682;9.022;2023-05-10T14:27:31;3.53;;;1.70;;
42802;SDS011;28447;48.682;9.022;2023-05-10T14:29:57;6.90;;;2.00;;
42802;SDS011;28447;48.682;9.022;2023-05-10T14:32:23;2.10;;;1.67;;
42802;SDS011;28447;48.682;9.022;2023-05-10T14:34:48;2.00;;;1.70;;
42802;SDS011;28447;48.682;9.022;2023-05-10T14:37:14;1.63;;;1.53;;
42802;SDS011;28447;48.682;9.022;2023-05-10T14:39:40;2.37;;;1.83;;
42802;SDS011;28447;48.682;9.022;2023-05-10T14:42:07;3.33;;;1.63;;
42802;SDS011;28447;48.682;9.022;2023-05-10T14:44:33;2.00;;;1.80;;
42802;SDS011;28447;48.682;9.022;2023-05-10T14:46:59;1.70;;;1.53;;
42802;SDS011;28447;48.682;9.022;2023-05-10T14:49:25;2.23;;;1.60;;
42802;SDS011;28447;48.682;9.022;2023-05-10T14:51:51;3.23;;;1.50;;
42802;SDS011;28447;48.682;9.022;2023-05-10T14:54:17;3.30;;;1.60;;
42802;SDS011;28447;48.682;9.022;2023-05-10T14:56:42;2.57;;;1.30;;
42802;SDS011;28447;48.682;9.022;2023-05-10T14:59:08;2.77;;;1.40;;
42802;SDS011;28447;48.682;9.022;2023-05-10T15:01:34;1.80;;;1.60;;
42802;SDS011;28447;48.682;9.022;2023-05-10T15:04:02;2.30;;;1.80;;
42802;SDS011;28447;48.682;9.022;2023-05-10T15:06:32;2.07;;;1.40;;
42802;SDS011;28447;48.682;9.022;2023-05-10T15:08:58;2.10;;;1.60;;
42802;SDS011;28447;48.682;9.022;2023-05-10T15:11:25;2.40;;;1.60;;
42802;SDS011;28447;48.682;9.022;2023-05-10T15:13:50;10.90;;;2.53;;
42802;SDS011;28447;48.682;9.022;2023-05-10T15:16:16;1.83;;;1.50;;
42802;SDS011;28447;48.682;9.022;2023-05-10T15:18:42;2.60;;;1.47;;
42802;SDS011;28447;48.682;9.022;2023-05-10T15:21:07;1.40;;;1.27;;
42802;SDS011;28447;48.682;9.022;2023-05-10T15:23:33;2.23;;;1.40;;
42802;SDS011;28447;48.682;9.022;2023-05-10T15:25:59;1.57;;;1.47;;
42802;SDS011;28447;48.682;9.022;2023-05-10T15:28:25;1.60;;;1.50;;
42802;SDS011;28447;48.682;9.022;2023-05-10T15:30:51;1.77;;;1.50;;
42802;SDS011;28447;48.682;9.022;2023-05-10T15:33:17;4.40;;;1.77;;
42802;SDS011;28447;48.682;9.022;2023-05-10T15:35:42;2.30;;;1.50;;
42802;SDS011;28447;48.682;9.022;2023-05-10T15:38:08;3.00;;;1.50;;
42802;SDS011;28447;48.682;9.022;2023-05-10T15:40:34;3.13;;;1.30;;
42802;SDS011;28447;48.682;9.022;2023-05-10T15:43:00;1.23;;;1.13;;
42802;SDS011;28447;48.682;9.022;2023-05-10T15:45:26;2.50;;;1.60;;
42802;SDS011;28447;48.682;9.022;2023-05-10T15:47:52;4.30;;;1.70;;
42802;SDS011;28447;48.682;9.022;2023-05-10T15:50:17;1.70;;;1.50;;
42802;SDS011;28447;48.682;9.022;2023-05-10T15:52:43;3.87;;;1.40;;
42802;SDS011;28447;48.682;9.022;2023-05-10T15:55:09;2.03;;;1.30;;
42802;SDS011;28447;48.682;9.022;2023-05-10T15:57:38;2.10;;;1.40;;
42802;SDS011;28447;48.682;9.022;2023-05-10T16:00:05;1.63;;;1.37;;
42802;SDS011;28447;48.682;9.022;2023-05-10T16:02:32;3.60;;;1.30;;
42802;SDS011;28447;48.682;9.022;2023-05-10T16:04:57;1.37;;;1.27;;
42802;SDS011;28447;48.682;9.022;2023-05-10T16:07:23;2.00;;;1.50;;
42802;SDS011;28447;48.682;9.022;2023-05-10T16:09:49;3.53;;;1.43;;
42802;SDS011;28447;48.682;9.022;2023-05-10T16:12:14;1.50;;;1.30;;
42802;SDS011;28447;48.682;9.022;2023-05-10T16:14:40;1.40;;;1.30;;
42802;SDS011;28447;48.682;9.022;2023-05-10T16:17:05;2.20;;;1.43;;
42802;SDS011;28447;48.682;9.022;2023-05-10T16:19:32;2.20;;;1.27;;
42802;SDS011;28447;48.682;9.022;2023-05-10T16:21:59;2.33;;;1.70;;
42802;SDS011;28447;48.682;9.022;2023-05-10T16:24:24;1.57;;;1.43;;
42802;SDS011;28447;48.682;9.022;2023-05-10T16:26:50;2.47;;;1.60;;
42802;SDS011;28447;48.682;9.022;2023-05-10T16:29:16;3.97;;;1.70;;
42802;SDS011;28447;48.682;9.022;2023-05-10T16:31:42;1.50;;;1.37;;
42802;SDS011;28447;48.682;9.022;2023-05-10T16:34:07;5.70;;;1.40;;
42802;SDS011;28447;48.682;9.022;2023-05-10T16:36:33;1.70;;;1.27;;
42802;SDS011;28447;48.682;9.022;2023-05-10T16:38:59;1.70;;;1.50;;
42802;SDS011;28447;48.682;9.022;2023-05-10T16:41:24;5.90;;;2.60;;
42802;SDS011;28447;48.682;9.022;2023-05-10T16:43:50;1.70;;;1.60;;
42802;SDS011;28447;48.682;9.022;2023-05-10T16:46:16;1.93;;;1.50;;
42802;SDS011;28447;48.682;9.022;2023-05-10T16:48:42;4.17;;;1.40;;
42802;SDS011;28447;48.682;9.022;2023-05-10T16:51:07;2.10;;;1.90;;
42802;SDS011;28447;48.682;9.022;2023-05-10T16:53:33;4.17;;;2.00;;
42802;SDS011;28447;48.682;9.022;2023-05-10T16:56:00;2.10;;;1.80;;
42802;SDS011;28447;48.682;9.022;2023-05-10T16:58:26;3.10;;;1.80;;
42802;SDS011;28447;48.682;9.022;2023-05-10T17:00:51;2.53;;;1.80;;
42802;SDS011;28447;48.682;9.022;2023-05-10T17:03:17;2.80;;;1.80;;
42802;SDS011;28447;48.682;9.022;2023-05-10T17:05:42;2.07;;;1.60;;
42802;SDS011;28447;48.682;9.022;2023-05-10T17:08:08;1.70;;;1.57;;
42802;SDS011;28447;48.682;9.022;2023-05-10T17:10:34;2.50;;;1.70;;
42802;SDS011;28447;48.682;9.022;2023-05-10T17:13:00;2.53;;;1.93;;
42802;SDS011;28447;48.682;9.022;2023-05-10T17:15:26;1.90;;;1.60;;
42802;SDS011;28447;48.682;9.022;2023-05-10T17:17:52;2.30;;;1.60;;
42802;SDS011;28447;48.682;9.022;2023-05-10T17:20:19;8.17;;;1.80;;
42802;SDS011;28447;48.682;9.022;2023-05-10T17:22:44;1.90;;;1.40;;
42802;SDS011;28447;48.682;9.022;2023-05-10T17:25:10;2.57;;;1.80;;
42802;SDS011;28447;48.682;9.022;2023-05-10T17:27:36;1.93;;;1.70;;
42802;SDS011;28447;48.682;9.022;2023-05-10T17:30:01;1.80;;;1.40;;
42802;SDS011;28447;48.682;9.022;2023-05-10T17:32:27;2.10;;;1.90;;
42802;SDS011;28447;48.682;9.022;2023-05-10T17:34:53;1.93;;;1.73;;
42802;SDS011;28447;48.682;9.022;2023-05-10T17:37:18;2.90;;;1.97;;
42802;SDS011;28447;48.682;9.022;2023-05-10T17:39:44;4.40;;;2.10;;
42802;SDS011;28447;48.682;9.022;2023-05-10T17:42:10;1.70;;;1.60;;
42802;SDS011;28447;48.682;9.022;2023-05-10T17:44:36;3.50;;;2.03;;
42802;SDS011;28447;48.682;9.022;2023-05-10T17:47:02;4.30;;;2.10;;
42802;SDS011;28447;48.682;9.022;2023-05-10T17:49:30;2.00;;;1.80;;
42802;SDS011;28447;48.682;9.022;2023-05-10T17:51:56;4.40;;;3.30;;
42802;SDS011;28447;48.682;9.022;2023-05-10T17:54:22;4.03;;;2.07;;
42802;SDS011;28447;48.682;9.022;2023-05-10T17:56:48;5.10;;;2.20;;
42802;SDS011;28447;48.682;9.022;2023-05-10T17:59:14;3.33;;;1.80;;
42802;SDS011;28447;48.682;9.022;2023-05-10T18:01:40;2.93;;;2.00;;
42802;SDS011;28447;48.682;9.022;2023-05-10T18:04:06;2.07;;;1.60;;
42802;SDS011;28447;48.682;9.022;2023-05-10T18:06:35;4.80;;;1.60;;
42802;SDS011;28447;48.682;9.022;2023-05-10T18:09:02;2.30;;;1.73;;
42802;SDS011;28447;48.682;9.022;2023-05-10T18:11:29;3.33;;;2.20;;
42802;SDS011;28447;48.682;9.022;2023-05-10T18:13:55;5.27;;;2.30;;
42802;SDS011;28447;48.682;9.022;2023-05-10T18:16:21;8.73;;;3.10;;
42802;SDS011;28447;48.682;9.022;2023-05-10T18:18:47;2.20;;;2.00;;
42802;SDS011;28447;48.682;9.022;2023-05-10T18:21:13;3.00;;;2.63;;
42802;SDS011;28447;48.682;9.022;2023-05-10T18:23:39;2.50;;;2.30;;
42802;SDS011;28447;48.682;9.022;2023-05-10T18:26:06;2.13;;;1.90;;
42802;SDS011;28447;48.682;9.022;2023-05-10T18:28:32;2.03;;;1.60;;
42802;SDS011;28447;48.682;9.022;2023-05-10T18:30:58;2.20;;;2.00;;
42802;SDS011;28447;48.682;9.022;2023-05-10T18:33:24;2.50;;;2.13;;
42802;SDS011;28447;48.682;9.022;2023-05-10T18:35:50;3.60;;;2.10;;
42802;SDS011;28447;48.682;9.022;2023-05-10T18:38:16;5.73;;;2.10;;
42802;SDS011;28447;48.682;9.022;2023-05-10T18:40:43;2.60;;;1.80;;
42802;SDS011;28447;48.682;9.022;2023-05-10T18:43:09;3.67;;;2.67;;
42802;SDS011;28447;48.682;9.022;2023-05-10T18:45:35;3.17;;;2.87;;
42802;SDS011;28447;48.682;9.022;2023-05-10T18:48:03;3.73;;;3.07;;
42802;SDS011;28447;48.682;9.022;2023-05-10T18:50:29;6.63;;;2.40;;
42802;SDS011;28447;48.682;9.022;2023-05-10T18:52:55;2.20;;;2.00;;
42802;SDS011;28447;48.682;9.022;2023-05-10T18:55:22;2.10;;;1.80;;